Skip navigation

Daily Weather Reports

[Select Refresh to Update]


Daily Summary Report


Date

Wind Dir
 

Hi
 

Lo
 

Wind Spd
mph

Hi
mph

Lo
mph

Wind Gust
mph

Hi
mph

Lo
mph

Hum In
%

Hi
%

Lo
%

Humidity
%

Hi
%

Lo
%

Temp In
 F

Hi
 F

Lo
 F

Temp
 F

Hi
 F

Lo
 F

Raw Barom
in

Hi
in

Lo
in

Tot Rain
in

Hi
in

Lo
in
9/20/2007 158 359 0 3 15 -3 8 16 0 30 32 28 60 85 37 82.0 84.4 77.4 60.4 67.4 52.7 29.88 29.94 29.82 0.05 0.08 0.01
9/21/2007 180 358 4 2 23 0 6 23 0 27 28 25 52 77 22 83.7 86.8 80.3 61.6 78.6 48.2 29.89 29.92 29.82 0.08 0.08 0.08
9/22/2007 45 359 0 1 11 0 5 11 0 33 37 26 74 87 64 79.7 85.4 76.0 58.8 62.3 55.0 29.93 29.98 29.90 0.44 0.78 0.08
9/23/2007 180 325 55 2 13 0 5 13 0 39 40 37 66 84 40 75.8 77.9 74.3 61.2 69.6 55.3 29.98 30.01 29.94 0.78 0.78 0.78
9/24/2007 180 359 0 1 12 0 3 12 0 36 45 29 57 88 17 78.6 83.6 72.0 66.4 84.6 51.1 30.00 30.05 29.93 0.78 0.78 0.78
9/25/2007 315 359 0 1 13 0 5 15 0 34 39 26 46 78 10 79.9 82.5 76.9 71.1 88.3 56.5 30.02 30.06 29.95 0.78 0.78 0.78
9/26/2007 315 359 0 1 15 0 6 15 0 28 37 22 32 72 6 81.4 86.8 77.7 74.5 92.2 59.6 30.00 30.04 29.94 0.78 0.78 0.78
9/27/2007 180 356 4 1 19 0 4 19 0 29 32 26 39 65 13 82.3 86.8 78.1 72.6 90.0 59.2 29.95 30.02 29.87 0.78 0.78 0.78
9/28/2007 180 339 19 1 11 0 5 12 0 33 34 31 72 87 59 82.3 84.0 79.3 62.2 67.8 58.5 29.89 29.94 29.83 0.78 0.78 0.78
9/29/2007 180 359 6 1 11 0 5 11 0 32 33 31 60 80 32 83.4 85.4 81.6 63.5 74.6 57.2 29.92 29.97 29.87 0.78 0.78 0.78
9/30/2007 180 356 0 2 16 0 6 16 0 28 31 26 32 75 8 83.3 85.8 80.5 72.1 90.2 56.7 30.01 30.06 29.95 0.78 0.78 0.78
10/1/2007 180 359 5 1 15 0 5 15 0 29 34 26 34 56 11 80.9 85.6 75.3 71.3 85.5 60.0 30.04 30.08 29.99 0.78 0.78 0.78
10/2/2007 315 353 14 1 9 0 4 9 0 27 31 24 36 67 5 80.1 83.6 76.2 74.1 91.1 59.4 30.03 30.09 29.96 0.78 0.78 0.78
10/3/2007 180 351 79 1 16 0 4 16 0 27 30 25 35 63 8 82.7 85.0 80.1 72.4 89.1 58.3 29.95 30.01 29.88 0.78 0.78 0.78
10/4/2007 180 329 22 2 14 0 6 15 0 26 30 24 46 77 13 83.7 86.4 80.6 66.9 80.8 56.4 29.85 29.90 29.78 0.78 0.78 0.78
10/5/2007 158 359 0 4 21 0 11 22 0 28 29 26 56 74 28 83.7 86.4 78.8 59.4 66.9 49.5 29.88 29.98 29.82 0.78 0.78 0.78
10/6/2007 0 359 0 7 29 0 14 29 0 23 26 20 35 80 13 79.0 82.9 76.7 59.6 71.3 45.1 30.04 30.09 29.98 0.78 0.78 0.78
10/7/2007 338 359 0 12 39 0 23 39 0 18 20 16 10 19 4 78.1 80.5 75.3 69.8 78.4 62.1 30.04 30.11 29.97 0.78 0.78 0.78
10/8/2007 135 359 0 3 24 0 8 24 0 17 19 16 12 34 4 80.2 82.7 76.3 72.3 88.1 57.6 29.93 29.99 29.84 0.78 0.78 0.78
10/9/2007 180 349 52 1 17 0 5 17 0 21 23 19 24 42 9 79.7 83.3 76.2 66.8 83.3 52.7 29.97 30.01 29.93 0.78 0.78 0.78
10/10/2007 270 331 21 1 14 0 4 14 0 22 24 20 40 78 13 81.2 83.3 78.3 61.4 75.6 48.3 30.01 30.07 29.95 0.78 0.78 0.78
10/11/2007 180 359 0 1 10 0 4 10 0 29 35 24 58 82 25 80.1 82.5 75.5 61.9 76.2 50.1 29.92 30.00 29.85 0.78 0.78 0.78
10/12/2007 180 359 0 1 12 0 5 12 0 31 33 29 68 87 39 79.1 81.8 72.9 58.4 67.6 52.7 29.88 29.93 29.83 0.78 0.78 0.78
10/13/2007 180 289 11 1 11 0 3 11 0 32 33 30 75 91 55 81.4 83.3 79.2 58.9 66.8 52.2 29.90 29.94 29.86 0.85 0.86 0.78
10/14/2007 180 356 3 1 11 0 4 11 0 34 36 32 71 89 41 82.6 85.0 80.5 62.9 76.5 53.6 29.94 29.99 29.91 0.86 0.86 0.86
10/15/2007 270 343 29 1 12 0 5 12 0 35 40 33 81 92 64 81.5 84.4 77.0 58.2 66.8 51.9 29.91 29.97 29.84 0.86 0.87 0.86
10/16/2007 180 354 2 1 10 0 4 10 0 34 35 31 75 90 56 81.6 83.1 78.3 57.8 63.3 54.2 29.87 29.95 29.83 0.88 0.88 0.87
10/17/2007 158 321 19 1 12 0 5 12 0 33 35 32 69 86 46 80.8 82.1 77.9 58.9 68.1 53.0 29.95 30.00 29.91 0.88 0.88 0.88
10/18/2007 315 359 0 4 28 0 10 28 0 32 35 28 49 90 12 80.7 84.4 77.9 66.0 84.0 50.9 29.98 30.03 29.94 0.88 0.88 0.88
10/19/2007 338 340 102 1 11 0 3 11 0 27 28 25 28 53 9 82.3 84.2 78.5 73.1 90.2 58.5 29.94 30.00 29.86 0.88 0.88 0.88
10/20/2007 180 359 0 3 40 0 8 40 0 26 28 22 39 65 12 81.7 83.6 78.6 68.2 81.2 55.7 29.87 29.92 29.82 0.88 0.88 0.88
10/21/2007 0 359 0 31 65 0 50 65 4 17 22 15 10 24 4 76.6 81.8 73.4 66.5 72.0 61.1 30.06 30.27 29.88 0.88 0.88 0.88
10/22/2007 0 359 0 22 57 0 41 57 0 14 15 12 4 10 1 79.0 81.4 76.3 71.0 78.8 64.4 30.25 30.35 30.18 0.88 0.88 0.88
10/23/2007 0 359 0 22 51 0 36 51 1 16 18 13 9 17 6 82.7 86.4 78.1 80.3 87.1 73.9 30.14 30.20 30.07 0.88 0.88 0.88
10/24/2007 338 359 0 3 20 0 8 21 0 20 22 18 15 26 7 81.7 85.8 74.3 77.3 91.9 66.0 30.09 30.14 30.02 0.88 0.88 0.88
10/25/2007 338 342 23 1 9 0 3 9 0 22 30 19 20 38 6 75.9 82.7 61.2 73.7 89.6 62.7 29.96 30.05 29.88 0.88 0.88 0.88
10/26/2007 248 285 45 1 10 0 3 12 0 32 36 29 27 40 7 65.1 74.4 59.2 69.6 85.3 57.8 29.94 30.03 29.89 0.88 0.88 0.88
10/27/2007 315 317 11 1 6 0 3 6 0 25 29 22 30 59 11 78.2 81.8 74.4 67.0 77.1 59.1 30.12 30.18 30.03 0.88 0.89 0.88
10/28/2007 315 359 2 1 11 0 4 11 0 27 28 25 32 55 8 82.6 85.8 80.3 75.1 91.1 62.2 30.14 30.20 30.08 0.89 0.89 0.89
10/29/2007 338 329 112 1 11 0 4 11 0 28 31 25 40 67 20 81.9 85.8 77.0 69.4 82.3 59.5 30.09 30.15 30.03 0.89 0.89 0.89
10/30/2007 180 344 40 1 11 0 4 11 0 32 36 30 61 81 43 79.8 82.3 75.1 62.6 71.3 53.9 30.08 30.11 30.04 0.89 0.89 0.89
10/31/2007 292 351 10 1 15 0 4 15 0 31 33 29 57 83 21 80.9 82.7 78.5 63.9 82.8 50.4 30.08 30.12 30.02 0.89 0.89 0.89
11/1/2007 180 271 11 1 11 0 4 11 0 30 32 28 60 81 24 82.1 85.6 79.5 63.5 79.4 51.7 30.03 30.09 29.96 0.89 0.89 0.89
11/2/2007 0 359 0 10 33 0 18 33 0 25 30 20 41 91 10 82.5 85.0 80.5 68.2 83.1 49.2 30.01 30.06 29.96 0.90 0.90 0.89
11/3/2007 0 359 0 12 38 0 23 40 0 18 20 17 11 25 7 84.0 86.4 81.9 75.8 84.2 64.4 30.06 30.09 30.01 0.90 0.90 0.90
11/4/2007 180 359 0 1 11 0 4 11 0 19 23 17 27 71 8 82.9 85.8 80.1 69.3 86.1 56.8 30.05 30.10 30.00 0.90 0.90 0.90
11/5/2007 180 226 126 1 10 0 4 10 0 28 34 23 63 85 38 81.6 84.4 77.0 61.8 76.7 51.6 30.03 30.08 29.98 0.90 0.90 0.90
11/6/2007 180 226 142 1 14 0 3 14 0 31 34 28 67 90 30 81.1 84.0 78.8 60.7 78.9 48.3 29.99 30.02 29.93 0.90 0.90 0.90
11/7/2007 180 253 139 2 14 0 4 14 0 31 33 30 65 88 15 81.3 83.6 77.6 62.1 83.5 49.0 30.04 30.08 29.99 0.90 0.90 0.90
11/8/2007 180 359 7 2 11 0 5 12 0 31 32 29 77 85 62 82.6 84.2 80.3 56.9 64.1 53.7 30.05 30.10 30.01 0.90 0.90 0.90
11/9/2007 135 332 2 1 7 0 4 7 0 32 34 31 77 89 60 83.1 85.2 80.8 55.8 60.2 52.8 30.04 30.07 30.00 0.90 0.90 0.90
11/10/2007 180 297 0 2 12 0 4 12 0 32 33 30 68 89 39 81.6 83.8 80.1 56.2 65.3 48.6 30.00 30.05 29.94 0.90 0.90 0.90
11/11/2007 0 359 0 3 41 0 7 41 0 32 33 31 69 88 45 78.7 80.3 76.5 55.5 63.6 46.4 29.95 30.00 29.88 0.90 0.90 0.90
11/12/2007 0 359 0 15 49 0 29 49 0 29 31 26 31 46 20 78.1 79.9 76.9 68.8 76.4 62.3 30.04 30.10 29.92 0.90 0.90 0.90
11/13/2007 0 359 0 9 36 0 17 36 0 25 26 24 20 32 14 80.8 84.0 78.3 74.7 83.0 64.2 30.05 30.10 29.99 0.90 0.90 0.90
11/14/2007 0 359 0 9 33 0 18 35 0 24 24 22 20 36 14 82.9 84.6 80.5 75.9 84.5 61.0 29.99 30.03 29.94 0.90 0.90 0.90
11/15/2007 315 359 0 2 17 0 5 26 0 24 25 22 25 41 14 83.5 85.4 80.8 73.5 86.4 61.4 29.98 30.02 29.93 0.90 0.90 0.90
11/16/2007 315 322 127 1 11 0 4 11 0 25 27 23 43 80 21 83.4 86.0 80.5 64.8 78.7 53.4 30.02 30.06 29.97 0.90 0.90 0.90
11/17/2007 225 239 147 1 6 0 3 6 0 28 30 27 68 92 33 83.6 85.2 81.8 58.9 74.5 49.3 30.03 30.09 29.98 0.90 0.90 0.90
11/18/2007 180 298 129 1 9 0 3 9 0 29 29 27 48 75 12 81.0 83.6 78.3 63.8 84.8 49.4 30.00 30.03 29.95 0.90 0.90 0.90
11/19/2007 225 240 115 1 9 0 3 9 0 26 29 23 31 53 7 79.0 81.6 75.5 64.0 81.5 52.4 29.99 30.05 29.96 0.90 0.90 0.90
11/20/2007 180 268 41 1 10 0 3 10 0 24 27 23 40 76 14 78.6 80.8 76.5 59.6 75.0 49.2 29.96 30.01 29.92 0.90 0.90 0.90
11/21/2007 0 359 0 11 36 0 19 36 0 22 28 15 39 92 10 79.1 80.8 77.4 58.8 70.3 44.0 30.01 30.05 29.98 0.90 0.90 0.90
11/22/2007 202 359 0 2 32 0 7 32 0 19 25 15 43 82 10 76.1 78.6 74.9 56.4 64.7 46.0 30.02 30.07 29.97 0.90 0.90 0.90
11/23/2007 0 359 0 12 46 0 21 46 0 22 27 14 36 86 6 72.7 75.6 69.8 55.2 62.0 43.4 29.97 30.03 29.92 0.90 0.90 0.90
11/24/2007 0 359 0 14 40 0 26 43 0 15 15 14 5 14 3 70.3 71.9 68.8 63.6 70.3 53.9 30.00 30.10 29.92 0.90 0.90 0.90
11/25/2007 338 342 112 1 9 0 3 9 0 16 17 14 15 26 6 71.2 72.2 69.8 57.2 68.0 48.2 30.05 30.11 29.98 0.90 0.90 0.90
11/26/2007 0 359 0 3 20 0 8 20 0 17 18 15 14 28 4 74.7 79.2 69.8 60.3 73.4 47.9 30.11 30.15 30.07 0.90 0.90 0.90
11/27/2007 315 359 0 2 24 0 4 24 0 16 19 15 14 25 4 76.7 78.6 74.3 59.1 71.2 51.2 30.09 30.12 29.98 0.90 0.90 0.90
11/28/2007 0 359 0 12 47 0 21 47 0 15 17 14 12 22 6 77.8 79.9 74.3 60.9 66.6 49.3 30.14 30.20 30.08 0.90 0.90 0.90
11/29/2007 315 357 8 1 14 0 3 14 0 17 18 15 15 30 6 76.3 80.1 73.4 59.5 72.9 48.8 30.06 30.16 29.95 0.90 0.90 0.90
11/30/2007 135 359 2 1 12 0 4 12 0 26 41 17 72 92 21 77.7 80.3 74.4 53.2 59.1 50.2 29.76 29.98 29.52 1.77 2.74 0.90
12/1/2007 180 290 44 4 20 0 9 20 0 36 41 30 72 92 41 70.6 74.8 67.9 49.4 53.3 46.8 29.92 30.21 29.58 2.76 2.77 2.74
12/2/2007 135 253 57 1 10 0 3 10 0 33 36 28 61 88 30 66.7 69.3 63.7 48.0 58.4 39.0 30.33 30.44 30.20 2.77 2.77 2.77
12/3/2007 270 355 43 1 9 0 4 9 0 29 33 25 42 68 15 73.1 81.0 62.6 56.6 74.8 42.0 30.35 30.42 30.30 2.77 2.77 2.77
12/4/2007 315 359 0 10 37 0 23 37 0 20 26 15 10 45 2 79.1 82.3 76.3 71.3 80.9 53.0 30.13 30.30 29.97 2.77 2.77 2.77
12/5/2007 248 358 0 1 13 0 4 13 0 21 23 17 25 51 8 80.3 82.3 77.7 65.3 80.4 51.9 29.92 29.97 29.86 2.77 2.77 2.77
12/6/2007 180 293 2 2 12 0 5 13 0 26 31 23 59 89 42 78.8 80.8 75.6 55.0 64.1 46.2 29.95 30.00 29.91 2.78 2.99 2.77
12/7/2007 135 236 14 4 17 0 9 17 0 30 31 29 86 92 76 78.9 80.5 77.6 50.4 53.1 46.8 29.94 29.98 29.88 4.02 4.31 2.99
12/8/2007 68 295 6 2 13 0 5 13 0 29 30 27 77 88 60 76.8 78.8 75.6 46.2 50.9 43.0 29.96 30.00 29.91 4.40 4.46 4.31
12/9/2007 0 359 0 15 46 0 26 46 0 25 27 23 51 85 34 73.6 77.6 70.7 49.3 54.2 42.9 30.00 30.03 29.95 4.50 4.51 4.46
12/10/2007 0 359 0 11 37 0 20 37 0 22 23 21 37 69 24 74.1 78.3 68.3 50.0 57.5 39.3 29.88 29.98 29.81 4.51 4.51 4.51
12/11/2007 0 359 0 15 40 0 25 40 0 20 23 18 36 73 22 73.4 75.5 68.5 48.7 54.1 38.7 30.06 30.24 29.89 4.51 4.51 4.51
12/12/2007 338 359 0 5 28 0 12 28 0 20 22 19 29 49 18 72.3 75.1 69.7 50.4 59.8 40.0 30.24 30.31 30.19 4.51 4.51 4.51
12/13/2007 0 359 0 7 33 0 14 33 0 20 22 18 26 50 15 71.7 74.3 69.2 51.4 59.4 42.5 30.11 30.20 30.04 4.51 4.51 4.51
12/14/2007 338 359 0 3 19 0 7 19 0 21 24 19 36 60 14 73.2 77.4 68.8 49.7 62.0 39.6 30.18 30.26 30.11 4.51 4.51 4.51
12/15/2007 338 351 25 1 8 0 3 9 0 21 22 20 35 54 14 70.8 74.4 69.5 49.8 64.3 39.3 30.21 30.28 30.15 4.51 4.51 4.51
12/16/2007 180 233 104 1 8 0 3 9 0 23 23 21 37 57 13 67.8 69.5 66.4 50.9 66.6 41.2 30.06 30.15 30.00 4.51 4.51 4.51
12/17/2007 225 219 65 1 10 0 3 10 0 25 27 23 58 80 32 71.3 75.5 65.6 48.1 57.9 38.9 30.10 30.17 30.03 4.51 4.51 4.51
12/18/2007 225 280 45 1 9 0 3 9 0 29 32 26 82 90 71 78.1 81.0 72.9 49.7 53.7 44.5 30.15 30.21 30.11 4.54 4.67 4.51
12/19/2007 135 340 75 1 9 0 4 9 0 35 43 29 84 92 67 77.3 80.6 70.2 53.0 58.0 49.3 30.18 30.23 30.13 4.97 5.02 4.67
12/20/2007 180 359 0 2 34 0 5 34 0 35 40 30 81 90 33 76.7 78.8 71.4 50.8 54.2 47.8 30.11 30.22 29.98 5.12 5.44 5.02
12/21/2007 338 359 0 13 48 0 29 48 0 23 31 18 23 43 10 71.1 74.3 67.5 49.7 54.7 44.8 30.12 30.29 29.95 5.45 5.45 5.44
12/22/2007 338 359 0 12 39 0 23 39 0 18 18 17 13 34 7 66.8 71.0 65.6 52.1 59.1 44.8 30.32 30.39 30.28 5.45 5.45 5.45
12/23/2007 315 359 0 9 41 0 21 41 0 19 22 17 15 30 7 67.5 70.9 65.4 62.7 72.2 46.6 30.25 30.32 30.17 5.45 5.45 5.45
12/24/2007 315 359 0 6 45 0 12 46 0 23 24 21 25 46 13 72.3 73.9 70.9 64.5 72.9 53.8 30.10 30.21 30.01 5.45 5.45 5.45
12/25/2007 0 359 0 18 60 0 32 63 0 18 24 16 17 38 5 66.0 72.5 64.2 51.2 56.0 40.4 30.19 30.29 30.02 5.45 5.45 5.45
12/26/2007 338 348 168 5 39 0 11 39 0 20 23 17 25 40 12 57.3 64.3 54.0 46.5 58.0 37.8 30.06 30.20 29.94 5.45 5.45 5.45
12/27/2007 338 348 10 8 40 0 19 40 1 22 23 21 18 30 10 52.5 54.4 51.5 43.6 49.1 39.4 30.14 30.22 30.04 5.45 5.45 5.45
12/28/2007 338 348 55 1 9 0 3 9 0 23 24 21 29 48 13 52.5 54.0 51.2 43.7 52.4 36.6 30.17 30.23 30.12 5.45 5.45 5.45
12/29/2007 270 325 55 1 10 0 3 10 0 29 35 24 63 81 46 53.5 55.0 52.1 43.4 52.0 35.7 30.15 30.20 30.11 5.45 5.45 5.45
12/30/2007 315 348 55 2 33 0 7 33 0 38 41 35 64 87 35 54.9 56.8 53.4 48.5 60.6 37.2 30.14 30.22 30.09 5.45 5.45 5.45
12/31/2007 338 348 10 21 57 2 35 57 6 32 40 22 24 50 13 59.5 61.8 56.8 57.4 62.4 51.9 30.15 30.26 30.09 5.45 5.45 5.45
1/1/2008 338 348 122 22 50 0 34 50 3 20 22 18 10 22 4 58.4 59.8 57.1 55.3 59.9 45.8 30.22 30.29 30.16 5.45 5.45 5.45
1/2/2008 315 351 180 2 18 0 7 18 0 19 21 16 17 33 6 67.9 76.9 58.1 55.0 68.4 46.4 30.14 30.20 30.08 5.45 5.45 5.45
1/3/2008 315 312 132 1 12 0 3 12 0 19 21 18 27 44 8 73.8 78.6 70.3 53.9 66.8 45.5 30.09 30.13 30.04 5.45 5.45 5.45
1/4/2008 135 356 2 4 18 0 9 19 0 26 32 20 71 90 39 77.3 88.4 72.2 51.0 54.5 46.8 30.06 30.14 29.92 5.57 6.61 5.45
1/5/2008 135 275 0 3 18 0 8 18 0 29 31 28 88 92 78 85.0 88.4 80.5 51.0 52.8 48.3 29.93 30.00 29.88 8.09 8.25 6.61
1/6/2008 135 359 4 3 17 0 8 17 0 30 32 28 85 92 75 76.7 80.5 73.9 47.4 51.6 42.4 29.94 30.00 29.79 8.60 9.24 8.25
1/7/2008 315 359 0 3 32 0 9 32 0 30 37 28 64 90 36 74.0 77.6 69.3 49.7 58.0 42.6 29.94 30.15 29.77 9.29 9.30 9.24
1/8/2008 0 358 11 1 6 0 3 6 0 32 39 29 71 88 46 72.1 75.6 66.7 47.7 56.9 39.8 30.16 30.21 30.12 9.30 9.30 9.30
1/9/2008 248 337 158 1 7 0 3 7 0 33 35 31 79 89 61 74.6 77.2 70.3 46.4 53.5 41.3 30.13 30.17 30.10 9.30 9.30 9.30
1/10/2008 292 357 2 1 13 0 5 13 0 31 33 29 65 88 28 73.8 76.9 70.3 51.5 65.6 41.0 30.10 30.16 30.05 9.30 9.30 9.30
1/11/2008 180 359 0 4 33 0 11 33 0 29 31 24 42 77 13 75.0 78.6 72.4 59.9 70.8 46.7 30.05 30.10 30.00 9.30 9.30 9.30
1/12/2008 338 359 0 3 25 0 7 25 0 26 27 25 31 54 11 76.4 78.1 74.3 61.1 75.0 47.8 30.08 30.15 30.04 9.30 9.30 9.30
1/13/2008 0 359 0 15 46 0 28 46 0 22 25 19 18 32 8 74.4 76.2 73.1 63.0 67.7 57.1 30.15 30.22 30.10 9.30 9.30 9.30
1/14/2008 315 359 0 8 40 0 18 40 0 18 19 17 15 33 7 76.6 79.9 72.4 61.2 69.6 47.4 30.23 30.33 30.19 9.30 9.30 9.30
1/15/2008 315 359 0 2 21 0 5 21 0 21 23 19 27 47 10 77.3 80.8 73.4 55.0 68.6 43.5 30.07 30.21 29.95 9.30 9.30 9.30
1/16/2008 0 359 0 17 50 0 30 51 0 17 21 13 15 29 10 74.6 77.4 67.9 54.6 62.2 48.0 29.98 30.10 29.90 9.30 9.30 9.30
1/17/2008 0 359 0 13 52 0 27 55 0 14 17 12 12 18 7 70.2 76.7 62.7 51.0 58.4 45.9 30.09 30.14 30.01 9.30 9.30 9.30
1/18/2008 0 359 0 12 46 0 23 46 0 18 19 17 21 35 16 72.0 77.6 66.5 53.9 59.7 47.5 30.14 30.22 30.08 9.30 9.30 9.30
1/19/2008 315 359 0 5 30 0 12 30 0 18 19 17 25 49 15 73.8 76.2 72.4 55.0 64.8 42.4 30.17 30.25 30.08 9.30 9.30 9.30
1/20/2008 180 354 6 1 13 0 5 13 0 21 23 19 48 78 21 71.7 73.4 70.2 48.1 60.0 37.6 29.98 30.08 29.90 9.30 9.30 9.30
1/21/2008 135 222 37 3 15 0 7 15 0 26 27 23 72 84 49 72.3 72.7 71.9 45.8 49.2 43.0 30.03 30.10 29.94 9.33 9.36 9.30
1/22/2008 112 326 107 1 9 0 3 9 0 28 29 26 71 88 43 74.7 78.5 70.7 47.4 55.0 42.5 30.11 30.17 30.07 9.61 9.75 9.36
1/23/2008 135 243 37 2 17 0 6 19 0 27 29 25 70 88 37 75.2 77.9 71.4 46.1 56.7 37.7 29.98 30.08 29.89 9.86 10.37 9.75
1/24/2008 135 280 39 5 24 0 11 24 0 30 33 27 80 89 62 73.8 77.0 68.3 44.0 48.9 41.0 29.97 30.01 29.93 10.41 10.52 10.37
1/25/2008 315 358 0 2 18 0 6 18 0 32 36 28 71 81 54 73.4 79.3 66.1 47.9 55.2 41.6 30.12 30.19 30.01 10.67 10.69 10.52
1/26/2008 338 358 0 1 13 0 4 13 0 27 28 27 58 86 20 75.1 77.7 72.5 51.7 66.0 39.6 30.12 30.22 29.97 10.74 11.31 10.69
1/27/2008 135 352 6 4 33 0 11 33 0 32 34 28 81 91 49 76.1 77.2 75.5 51.9 60.3 47.2 29.91 29.98 29.83 12.28 12.82 11.31
1/28/2008 135 353 4 3 18 0 10 18 0 33 36 29 81 91 50 75.9 78.3 73.7 46.8 51.8 44.7 30.02 30.15 29.94 13.88 14.06 12.82
1/29/2008 225 320 2 1 9 0 3 10 0 30 32 28 70 87 46 76.0 77.9 73.9 46.9 52.1 43.0 30.17 30.23 30.14 14.06 14.06 14.06
1/30/2008 0 359 0 7 32 0 14 32 0 27 30 23 52 79 21 74.6 76.7 71.4 48.7 56.1 43.8 30.14 30.25 30.07 14.06 14.06 14.06
1/31/2008 135 359 0 2 24 0 6 24 0 24 25 22 38 68 21 74.1 79.0 68.3 49.1 59.4 39.3 30.24 30.32 30.19 14.06 14.06 14.06
2/1/2008 292 308 39 2 14 0 4 14 0 25 29 23 64 85 35 75.3 78.3 72.5 46.7 56.4 37.9 30.11 30.20 30.06 14.06 14.07 14.06
2/2/2008 202 221 52 1 10 0 3 10 0 27 28 27 74 88 59 76.0 77.2 74.3 47.2 51.2 42.7 30.08 30.13 30.05 14.10 14.10 14.07
2/3/2008 135 356 4 5 23 0 11 23 0 31 33 28 86 91 75 72.3 74.3 71.2 46.2 50.4 43.6 29.91 30.06 29.81 14.76 15.26 14.10
2/4/2008 338 359 0 6 29 0 14 29 0 28 31 24 54 88 24 72.8 76.2 68.3 47.3 54.9 39.6 29.95 30.15 29.85 15.27 15.27 15.26
2/5/2008 0 359 0 7 31 0 15 31 0 20 24 17 25 53 12 74.4 78.8 67.5 48.3 57.2 39.6 30.23 30.29 30.14 15.27 15.27 15.27
2/6/2008 338 342 102 1 9 0 4 9 0 19 21 17 44 73 18 81.6 83.3 76.5 47.1 59.9 36.1 30.20 30.28 30.13 15.27 15.27 15.27
2/7/2008 248 359 0 2 28 0 5 30 0 23 26 21 47 78 20 78.1 80.8 74.4 54.2 70.2 39.2 30.14 30.22 30.09 15.27 15.27 15.27
2/8/2008 0 359 0 5 29 0 12 29 0 23 26 19 27 60 6 78.8 82.1 75.6 63.7 75.9 45.9 30.07 30.10 30.04 15.27 15.27 15.27
2/9/2008 338 359 0 5 23 0 12 23 0 20 21 19 15 39 6 79.6 81.2 78.3 67.1 76.7 53.6 30.09 30.13 30.05 15.27 15.27 15.27
2/10/2008 0 359 0 3 20 0 9 21 0 21 22 20 24 45 12 77.9 79.7 75.5 65.1 77.6 50.2 30.09 30.14 30.04 15.27 15.27 15.27
2/11/2008 315 359 0 5 26 0 12 26 0 21 24 19 20 42 11 79.7 83.1 76.3 68.0 78.4 51.8 30.06 30.09 30.00 15.27 15.27 15.27
2/12/2008 315 359 0 8 28 0 16 32 0 20 22 19 19 44 12 81.6 82.9 79.2 69.4 78.4 54.5 30.05 30.12 29.98 15.27 15.27 15.27
2/13/2008 248 290 83 2 16 0 6 18 0 24 26 21 49 79 20 81.3 83.3 78.6 57.1 71.4 49.2 29.86 30.01 29.76 15.27 15.27 15.27
2/14/2008 0 359 0 16 45 0 29 46 0 17 25 14 24 82 13 73.9 82.1 69.8 50.5 54.0 45.6 29.83 29.98 29.74 15.27 15.27 15.27
2/15/2008 0 359 0 9 45 0 22 45 0 16 17 15 20 51 8 73.7 79.7 65.4 53.1 63.8 42.1 30.07 30.18 29.96 15.27 15.27 15.27
2/16/2008 90 222 61 1 10 0 4 10 0 19 22 16 46 80 22 76.0 78.8 73.7 49.9 63.4 37.6 30.15 30.20 30.11 15.27 15.27 15.27
2/17/2008 180 246 114 1 10 0 4 12 0 26 28 22 66 84 33 75.8 78.1 73.1 50.5 65.7 39.4 30.08 30.13 30.04 15.27 15.27 15.27
2/18/2008 180 270 129 1 10 0 4 10 0 28 30 27 65 88 31 76.9 79.2 74.1 53.9 69.1 42.8 30.03 30.08 29.98 15.27 15.27 15.27
2/19/2008 248 280 199 1 8 0 3 9 0 30 32 28 84 94 77 78.4 81.6 76.9 50.0 52.5 46.9 30.09 30.15 30.04 15.28 15.28 15.27
2/20/2008 202 310 39 2 20 0 6 20 0 32 35 31 86 90 70 79.0 81.4 76.7 49.0 54.3 47.1 30.04 30.12 29.93 15.57 15.82 15.28
2/21/2008 158 268 46 2 10 0 5 10 0 31 33 29 77 89 52 80.3 82.5 77.2 49.6 55.4 45.6 30.04 30.11 30.00 15.83 15.91 15.82
2/22/2008 135 314 40 3 25 0 9 25 0 31 34 29 84 91 70 79.5 81.4 77.4 48.3 55.2 44.2 29.97 30.07 29.89 16.43 16.68 15.91
2/23/2008 180 359 5 1 14 0 5 14 0 30 31 29 70 89 29 77.6 80.5 75.1 49.4 61.5 39.2 30.10 30.18 30.01 16.69 16.71 16.68
2/24/2008 135 346 7 2 17 0 7 17 0 32 34 29 81 96 63 75.1 77.0 73.9 49.6 54.0 45.9 30.15 30.20 30.09 17.00 17.12 16.71
2/25/2008 135 359 0 3 33 0 8 33 0 33 35 27 60 90 17 75.4 77.6 73.1 55.7 69.7 43.0 30.17 30.23 30.11 17.12 17.12 17.12
2/26/2008 0 359 0 14 38 0 26 38 0 24 27 21 20 31 13 78.7 83.4 74.9 66.8 74.6 59.8 30.16 30.22 30.12 17.12 17.12 17.12
2/27/2008 270 359 0 3 27 0 8 27 0 23 25 21 27 55 12 80.8 82.7 78.6 66.0 80.2 52.9 30.04 30.16 29.94 17.12 17.12 17.12
2/28/2008 270 359 0 2 15 0 6 15 0 24 26 22 44 80 12 81.9 85.6 77.9 62.9 79.7 50.7 29.92 30.00 29.87 17.12 17.12 17.12
2/29/2008 180 270 120 1 10 0 4 10 0 29 34 25 70 85 44 81.4 85.0 77.9 57.2 71.6 45.9 30.06 30.16 30.00 17.12 17.12 17.12
3/1/2008 135 280 95 1 7 0 4 7 0 36 38 33 85 90 79 75.2 77.9 73.2 51.7 54.0 49.5 30.08 30.17 29.99 17.12 17.12 17.12
3/2/2008 0 359 0 17 57 0 32 57 0 21 33 15 24 88 5 68.1 75.3 63.2 57.5 64.3 46.4 30.06 30.21 29.93 17.12 17.12 17.12
3/3/2008 0 359 0 9 51 0 18 51 0 16 18 15 12 34 4 70.0 78.8 59.4 59.1 70.1 46.5 30.22 30.29 30.13 17.12 17.12 17.12
3/4/2008 270 359 0 2 20 0 5 20 0 20 23 18 28 54 9 76.9 81.8 71.0 57.6 73.1 44.6 30.02 30.14 29.92 17.12 17.12 17.12
3/5/2008 0 359 0 7 37 0 17 40 0 19 22 15 26 66 3 80.3 83.1 78.1 56.5 68.0 42.3 30.02 30.14 29.92 17.12 17.12 17.12
3/6/2008 338 359 0 5 21 0 11 21 0 16 20 14 15 54 6 78.9 82.1 72.4 60.4 70.8 49.6 30.18 30.25 30.13 17.12 17.12 17.12
3/7/2008 202 359 0 2 17 0 6 17 0 21 23 19 29 50 8 74.8 76.3 73.2 60.1 75.7 47.2 30.19 30.25 30.12 17.12 17.12 17.12
3/8/2008 202 359 0 3 43 0 8 43 0 23 24 20 37 61 16 76.3 78.8 73.7 60.4 73.6 47.1 30.01 30.15 29.91 17.12 17.12 17.12
3/9/2008 0 359 0 19 50 0 30 50 0 20 22 18 15 23 10 75.1 77.7 72.0 65.7 74.1 57.7 30.06 30.18 29.94 17.12 17.12 17.12
3/10/2008 315 313 57 1 12 0 5 12 0 20 23 18 23 42 9 78.3 83.8 74.4 63.5 79.6 49.1 30.21 30.25 30.16 17.12 17.12 17.12
3/11/2008 292 359 0 2 18 0 6 18 0 22 24 21 30 49 13 78.7 82.9 74.4 65.5 81.0 52.6 30.15 30.22 30.06 17.12 17.12 17.12
3/12/2008 292 291 103 1 10 0 4 10 0 24 27 22 40 65 18 79.4 82.5 76.2 63.3 77.3 51.8 30.02 30.10 29.95 17.12 17.12 17.12
3/13/2008 202 354 12 1 14 0 5 14 0 28 33 24 58 82 33 79.0 81.0 74.6 61.0 74.2 51.6 30.00 30.05 29.96 17.12 17.12 17.12
3/14/2008 202 359 0 1 14 0 5 14 0 31 34 29 71 89 50 80.2 81.8 78.3 56.0 61.8 49.5 30.00 30.06 29.95 17.12 17.12 17.12
3/15/2008 180 359 0 4 30 0 9 30 0 28 30 26 64 85 34 78.3 80.6 75.6 50.0 59.1 40.5 29.88 29.99 29.77 17.13 17.16 17.12
3/16/2008 315 359 0 4 38 0 10 38 0 26 28 21 53 84 18 72.7 75.6 70.7 48.5 60.3 38.6 29.84 29.97 29.75 17.17 17.17 17.16
3/17/2008 0 359 0 10 46 0 21 47 0 19 22 17 19 45 5 73.6 78.8 66.1 56.0 68.1 46.2 30.07 30.17 29.95 17.17 17.17 17.17
3/18/2008 292 294 127 1 12 0 5 12 0 23 26 20 35 58 15 77.2 81.9 73.1 57.4 74.3 41.6 30.16 30.20 30.11 17.17 17.17 17.17
3/19/2008 270 330 125 1 14 0 5 14 0 25 26 23 47 73 18 77.9 80.6 74.4 57.9 72.4 45.8 30.11 30.16 30.03 17.17 17.17 17.17
3/20/2008 225 293 123 2 14 0 5 14 0 28 31 25 59 82 27 77.1 80.8 74.1 56.6 72.0 42.9 30.09 30.14 30.03 17.17 17.17 17.17
3/21/2008 248 359 0 5 29 0 12 29 0 23 29 19 27 77 5 79.5 83.1 75.8 67.6 83.3 49.8 30.11 30.16 30.06 17.17 17.17 17.17
3/22/2008 0 359 0 10 33 0 18 33 0 20 22 17 13 42 5 81.2 83.4 78.8 71.3 81.9 55.0 30.09 30.13 30.05 17.17 17.17 17.17
3/23/2008 338 359 0 6 30 0 13 30 0 17 18 16 9 23 2 82.6 85.2 79.9 71.9 83.2 59.1 30.09 30.14 30.02 17.17 17.17 17.17
3/24/2008 292 354 131 2 15 0 6 17 0 18 19 16 18 39 4 81.4 84.0 78.3 67.4 84.4 51.7 30.02 30.07 29.96 17.17 17.17 17.17
3/25/2008 180 347 121 2 15 0 5 15 0 21 23 19 34 64 11 81.3 83.6 77.4 64.2 80.1 50.4 30.03 30.08 29.99 17.17 17.17 17.17
3/26/2008 180 303 114 2 15 0 6 15 0 25 30 23 55 75 28 81.6 84.8 79.2 61.3 75.4 49.1 30.08 30.15 30.03 17.17 17.17 17.17
3/27/2008 180 297 56 1 13 0 5 13 0 28 30 26 61 85 34 81.4 84.6 78.5 59.3 72.5 46.9 29.99 30.07 29.90 17.17 17.17 17.17
3/28/2008 292 330 126 2 14 0 6 14 0 27 29 26 58 77 35 80.7 84.0 77.4 57.9 71.1 47.0 29.90 29.95 29.85 17.17 17.17 17.17
3/29/2008 225 259 65 2 13 0 5 13 0 29 30 27 69 82 49 82.6 84.0 81.6 54.8 61.5 50.1 29.93 29.98 29.90 17.17 17.17 17.17
3/30/2008 180 330 139 3 17 0 8 17 0 30 32 28 70 88 46 81.2 82.9 79.5 52.6 59.1 46.9 29.99 30.10 29.93 17.18 17.18 17.17
3/31/2008 202 312 8 2 13 0 5 13 0 28 29 27 59 77 32 79.7 81.6 77.9 52.6 65.5 45.8 30.07 30.13 30.01 17.18 17.18 17.18
4/1/2008 248 285 89 2 13 0 5 13 0 31 39 28 63 86 31 76.2 80.1 68.8 53.0 66.3 40.9 30.03 30.08 29.98 17.18 17.18 17.18
4/2/2008 180 285 42 2 13 0 5 14 0 31 41 26 64 88 18 76.2 80.8 68.7 51.9 64.6 42.4 30.05 30.09 30.00 17.18 17.18 17.18
4/3/2008 180 306 98 1 12 0 5 12 0 30 34 28 66 79 46 80.5 83.6 78.1 56.4 66.6 50.6 30.11 30.16 30.06 17.18 17.18 17.18
4/4/2008 202 291 53 2 16 0 6 16 0 29 33 26 59 90 17 82.9 88.0 78.5 60.3 76.1 46.4 30.07 30.16 29.97 17.18 17.18 17.18
4/5/2008 202 293 73 1 10 0 4 10 0 28 30 27 71 87 52 82.8 86.0 81.0 54.7 60.6 50.7 29.94 29.99 29.90 17.18 17.18 17.18
4/6/2008 202 311 106 1 14 0 5 14 0 29 31 28 71 84 50 79.6 81.4 77.7 55.2 61.9 50.9 30.00 30.04 29.94 17.18 17.18 17.18
4/7/2008 202 326 68 2 15 0 6 15 0 31 34 29 65 84 34 81.6 86.4 78.3 57.4 68.7 50.6 30.00 30.05 29.96 17.18 17.18 17.18
4/8/2008 180 285 33 2 18 0 7 18 0 29 31 26 66 84 44 83.7 86.0 81.6 54.3 61.0 48.6 29.92 30.00 29.85 17.18 17.18 17.18
4/9/2008 248 327 116 2 18 0 7 18 0 27 29 24 56 80 31 82.7 85.0 80.1 53.4 64.8 42.9 29.92 30.00 29.87 17.18 17.18 17.18
4/10/2008 248 359 0 4 23 0 9 23 0 24 26 20 40 79 8 80.7 83.3 78.1 60.5 78.1 42.1 30.01 30.08 29.97 17.18 17.18 17.18
4/11/2008 0 359 0 14 38 0 24 38 0 19 24 15 16 55 4 82.6 84.8 79.7 72.0 83.0 51.3 30.09 30.14 30.04 17.18 17.18 17.18
4/12/2008 0 359 0 9 31 0 19 31 0 16 17 15 7 18 3 84.6 87.8 81.4 76.3 87.0 61.3 30.09 30.15 30.03 17.18 17.18 17.18
4/13/2008 180 359 0 3 20 0 10 20 0 16 18 15 9 23 4 87.7 90.9 84.6 79.5 93.1 63.5 30.01 30.07 29.93 17.18 17.18 17.18
4/14/2008 180 320 55 2 20 0 7 20 0 19 23 17 22 53 6 82.9 90.3 77.7 72.3 88.9 56.8 29.95 30.00 29.90 17.18 17.18 17.18
4/15/2008 180 312 37 3 16 0 7 16 0 25 29 22 58 79 31 79.5 81.4 78.1 58.3 69.4 48.5 29.95 30.00 29.88 17.18 17.18 17.18
4/16/2008 0 359 0 6 31 0 13 31 0 23 27 16 37 80 4 79.8 82.1 77.0 61.6 77.2 45.6 29.98 30.04 29.93 17.18 17.18 17.18
4/17/2008 338 359 0 3 19 0 8 19 0 19 20 16 15 56 4 82.3 85.6 79.0 69.4 84.6 52.3 30.06 30.12 30.01 17.18 17.18 17.18
4/18/2008 135 357 0 2 19 0 7 19 0 19 22 17 24 44 4 84.3 87.4 79.9 67.9 85.3 53.6 29.96 30.08 29.86 17.18 17.18 17.18
4/19/2008 180 304 53 3 20 0 8 20 0 21 24 18 57 80 36 83.7 86.2 80.3 56.4 66.9 47.0 29.90 29.97 29.87 17.18 17.18 17.18
4/20/2008 180 338 64 2 13 0 7 13 0 24 25 23 59 77 35 82.5 84.4 80.5 55.0 65.8 47.4 30.00 30.06 29.96 17.18 17.18 17.18
4/21/2008 225 358 15 1 15 0 6 15 0 25 27 24 58 80 28 81.5 85.6 79.0 56.3 70.6 45.4 30.02 30.08 29.99 17.18 17.18 17.18
4/22/2008 202 308 127 2 16 0 6 16 0 25 27 23 53 81 19 82.1 85.6 78.8 59.6 75.0 46.0 29.97 30.00 29.93 17.18 17.18 17.18
4/23/2008 225 285 49 2 17 0 6 17 0 26 29 23 59 79 36 81.3 84.0 77.7 56.2 69.4 44.9 30.02 30.06 29.97 17.18 17.18 17.18
4/24/2008 202 359 0 3 25 0 8 25 0 25 28 19 49 83 6 81.2 83.3 77.6 61.9 79.9 47.0 30.04 30.09 29.98 17.18 17.18 17.18
4/25/2008 202 359 0 2 25 0 9 25 0 20 28 15 20 63 2 82.0 87.0 76.3 71.9 87.2 52.7 30.05 30.11 29.98 17.18 17.18 17.18
4/26/2008 0 359 0 11 40 0 22 40 0 15 17 13 12 24 5 88.7 95.7 83.3 79.4 90.6 64.9 30.00 30.04 29.94 17.18 17.18 17.18
4/27/2008 0 359 0 9 33 0 16 33 0 11 14 7 6 22 1 92.9 97.1 88.8 80.1 90.3 64.8 30.03 30.09 29.99 17.18 17.18 17.18
4/28/2008 315 353 3 1 15 0 5 15 0 14 18 10 11 27 1 83.6 91.8 79.3 76.7 94.8 59.0 29.97 30.04 29.90 17.18 17.18 17.18
4/29/2008 202 322 50 2 16 0 7 16 0 23 31 18 30 71 9 81.4 85.6 78.1 70.0 84.8 56.7 29.88 29.94 29.82 17.18 17.18 17.18
4/30/2008 202 334 60 2 12 0 6 12 0 34 37 30 72 88 52 80.0 81.9 77.4 56.7 61.9 53.5 29.89 29.94 29.85 17.20 17.21 17.18
5/1/2008 338 359 0 6 30 0 13 32 0 25 33 14 39 83 5 78.7 82.7 73.7 63.0 78.1 46.8 29.93 29.98 29.88 17.21 17.21 17.21
5/2/2008 112 359 0 2 27 0 7 27 0 23 28 16 29 61 4 77.8 85.0 71.7 67.4 84.5 49.9 29.98 30.02 29.92 17.21 17.21 17.21
5/3/2008 180 324 91 2 17 0 6 17 0 24 27 22 25 47 8 76.8 82.7 71.5 67.5 81.2 52.9 29.93 30.00 29.85 17.21 17.21 17.21
5/4/2008 180 298 56 2 19 0 7 19 0 25 26 22 55 84 25 81.2 84.2 78.5 59.7 74.7 49.4 29.86 29.91 29.80 17.21 17.21 17.21
5/5/2008 225 298 118 2 18 0 8 18 0 27 28 25 57 76 33 82.2 84.6 79.3 59.1 70.1 52.8 29.90 29.94 29.87 17.21 17.21 17.21
5/6/2008 202 318 46 2 16 0 7 16 0 29 32 25 64 75 42 81.1 83.4 75.1 58.3 68.7 53.6 29.96 30.02 29.89 17.21 17.21 17.21
5/7/2008 180 265 165 1 10 0 5 10 0 30 32 28 78 88 67 82.3 85.0 78.6 56.0 59.4 52.7 29.99 30.03 29.94 17.24 17.24 17.21
5/8/2008 180 295 93 2 11 0 6 11 0 31 33 28 64 83 38 81.1 83.3 75.8 61.2 73.8 53.0 29.93 29.97 29.86 17.24 17.24 17.24
5/9/2008 202 280 123 1 9 0 4 9 0 31 32 30 73 85 55 83.1 86.6 80.3 56.6 64.5 49.5 29.93 29.98 29.88 17.24 17.24 17.24
5/10/2008 180 322 65 2 10 0 5 10 0 30 31 29 63 86 29 86.1 89.7 82.1 63.7 78.9 54.5 29.97 30.01 29.92 17.24 17.24 17.24
5/11/2008 202 330 100 2 14 0 6 14 0 29 30 28 62 84 27 87.3 89.7 84.6 62.6 78.2 51.2 29.95 30.00 29.90 17.24 17.24 17.24
5/12/2008 202 325 83 2 12 0 5 12 0 30 33 28 79 88 65 83.8 88.4 77.7 55.4 59.1 52.6 29.91 29.95 29.85 17.27 17.27 17.24
5/13/2008 315 359 0 4 34 0 12 34 0 25 32 17 40 88 2 81.5 84.0 79.3 65.0 82.1 47.7 29.94 30.03 29.87 17.27 17.27 17.27
5/14/2008 315 359 0 3 26 0 8 26 0 24 30 19 34 63 4 80.6 84.6 74.9 71.2 92.2 50.9 29.99 30.03 29.92 17.27 17.27 17.27
5/15/2008 0 359 0 7 31 0 15 31 0 27 30 23 23 54 9 79.7 85.6 75.8 81.1 94.9 60.9 29.92 29.97 29.85 17.27 17.27 17.27
5/16/2008 0 359 0 6 30 0 13 30 0 22 28 17 17 45 3 80.5 85.0 71.7 82.0 94.3 65.5 30.02 30.07 29.97 17.27 17.27 17.27
5/17/2008 0 359 0 3 26 0 7 26 0 22 23 21 17 34 4 84.4 92.4 72.4 83.6 101.9 64.6 30.02 30.08 29.93 17.27 17.27 17.27
5/18/2008 180 314 16 2 15 0 6 15 0 22 23 21 26 43 10 93.6 97.6 89.0 83.6 101.2 68.1 29.95 30.00 29.88 17.27 17.27 17.27
5/19/2008 225 267 85 1 16 0 5 18 0 28 33 22 31 50 14 87.9 96.9 81.6 82.3 98.4 67.2 29.91 29.95 29.87 17.27 17.27 17.27
5/20/2008 180 255 66 3 16 0 7 16 0 31 34 27 50 79 27 85.3 87.8 81.0 72.8 86.5 60.4 29.93 29.99 29.88 17.27 17.27 17.27
5/21/2008 180 323 0 2 19 0 9 19 0 30 32 27 59 85 32 84.6 88.0 80.8 63.9 73.5 57.2 29.74 29.88 29.63 17.27 17.27 17.27
5/22/2008 135 359 0 2 21 0 7 21 0 29 31 26 66 85 25 81.8 84.6 77.9 56.9 70.7 49.9 29.54 29.64 29.45 17.41 17.79 17.27
5/23/2008 135 327 31 2 16 0 7 16 0 32 35 30 83 87 75 79.2 80.8 77.6 51.2 53.4 49.2 29.68 29.86 29.58 18.54 19.51 17.79
5/24/2008 112 258 15 2 15 0 6 15 0 31 34 30 66 86 46 75.7 79.0 71.5 53.2 59.1 48.6 29.93 29.99 29.86 19.51 19.51 19.51
5/25/2008 180 258 55 2 19 0 7 19 0 34 35 34 59 81 34 70.1 71.7 68.5 54.7 63.3 47.9 29.93 29.97 29.88 19.51 19.51 19.51
5/26/2008 180 302 168 1 10 0 5 10 0 35 35 34 63 79 46 70.4 71.5 69.2 55.6 62.3 49.8 29.97 30.01 29.92 19.51 19.51 19.51
5/27/2008 112 315 122 2 16 0 8 16 0 35 38 32 51 78 35 76.3 79.5 70.7 63.8 72.2 46.6 29.97 30.01 29.93 19.51 19.51 19.51
5/28/2008 180 336 61 2 15 0 6 15 0 31 33 29 55 84 24 81.0 85.4 77.2 61.0 75.0 47.9 30.00 30.04 29.97 19.51 19.51 19.51
5/29/2008 180 347 60 2 16 0 6 16 0 29 31 27 55 82 27 82.7 85.6 79.2 62.2 76.6 48.9 30.02 30.06 29.98 19.51 19.51 19.51
5/30/2008 225 302 30 2 14 0 6 14 0 30 32 28 49 78 23 82.0 83.8 78.5 65.9 79.5 51.0 30.01 30.04 29.97 19.51 19.51 19.51
5/31/2008 202 235 72 1 14 0 5 14 0 31 34 29 52 78 24 82.0 83.4 79.9 65.7 78.7 52.2 30.03 30.08 29.97 19.51 19.51 19.51
6/1/2008 225 302 55 1 14 0 5 14 0 34 35 33 54 81 24 81.0 84.0 78.3 66.6 82.0 52.5 29.99 30.03 29.92 19.51 19.51 19.51
6/2/2008 202 303 46 1 14 0 6 14 0 33 35 31 55 80 25 80.8 83.1 77.4 66.9 79.8 54.2 29.97 30.01 29.91 19.51 19.51 19.51
6/3/2008 202 310 21 1 13 0 5 13 0 33 35 31 60 84 32 82.4 87.4 79.5 65.9 79.1 54.5 29.88 29.96 29.79 19.51 19.51 19.51
6/4/2008 180 356 2 2 10 0 5 10 0 31 35 28 78 88 69 82.8 87.6 77.2 58.4 61.4 55.1 29.77 29.81 29.72 19.51 19.51 19.51
6/5/2008 180 358 0 3 15 0 8 15 0 32 34 29 52 89 16 83.5 89.7 79.5 67.7 85.1 50.9 29.83 29.88 29.78 19.51 19.51 19.51
6/6/2008 248 293 42 2 16 0 6 16 0 30 33 26 40 67 17 85.2 89.5 80.3 72.8 88.4 56.4 29.82 29.87 29.77 19.51 19.51 19.51
6/7/2008 202 347 22 1 15 0 5 15 0 30 32 28 48 74 17 87.1 92.0 81.8 71.0 86.9 56.9 29.79 29.85 29.76 19.51 19.51 19.51
6/8/2008 180 359 0 2 18 0 7 18 0 29 30 28 53 85 5 89.8 92.7 87.2 72.4 95.0 54.9 29.85 29.91 29.82 19.51 19.51 19.51
6/9/2008 180 312 127 2 18 0 6 18 0 30 37 26 46 81 6 87.1 91.8 81.4 77.1 98.2 56.6 29.86 29.90 29.81 19.51 19.51 19.51
6/10/2008 202 346 19 1 13 0 5 13 0 39 48 33 56 84 18 80.4 85.3 73.5 72.0 89.4 57.8 29.83 29.87 29.80 19.51 19.51 19.51
6/11/2008 202 297 104 2 14 0 7 14 0 41 44 36 57 81 23 79.7 83.1 77.4 70.0 86.1 59.3 29.87 29.91 29.82 19.51 19.51 19.51
6/12/2008 202 289 127 2 16 0 6 16 0 38 43 34 58 83 27 80.2 86.0 71.2 70.9 89.2 56.4 29.90 29.96 29.86 19.51 19.51 19.51
6/13/2008 180 275 126 2 16 0 6 16 0 44 50 34 52 83 19 79.1 85.8 70.2 75.4 96.0 57.4 29.96 30.01 29.93 19.51 19.51 19.51
6/14/2008 180 275 134 2 14 0 5 15 0 35 42 27 43 79 12 86.6 92.9 80.3 77.3 94.2 59.4 29.97 30.01 29.92 19.51 19.51 19.51
6/15/2008 225 285 61 1 13 0 5 13 0 27 30 23 28 55 7 86.5 91.4 82.5 79.1 95.6 62.3 29.91 29.96 29.88 19.51 19.51 19.51
6/16/2008 248 303 77 1 14 0 4 14 0 28 31 25 28 49 5 85.4 89.5 82.1 81.1 99.6 63.3 29.92 29.97 29.88 19.51 19.51 19.51
6/17/2008 225 349 23 1 16 0 5 16 0 33 41 30 35 62 11 84.1 89.5 78.5 82.0 100.1 64.8 29.98 30.01 29.95 19.51 19.51 19.51
6/18/2008 248 292 133 2 16 0 6 16 0 33 39 29 29 54 6 79.8 83.8 68.8 82.5 101.4 64.9 29.95 30.00 29.88 19.51 19.51 19.51
6/19/2008 180 348 10 2 18 0 8 18 0 37 50 28 24 45 5 72.9 83.6 58.3 86.1 105.6 67.3 29.90 29.93 29.85 19.51 19.51 19.51
6/20/2008 158 348 10 2 15 0 7 15 0 29 34 23 23 44 6 87.9 95.7 81.9 87.1 106.1 70.0 29.90 29.93 29.87 19.51 19.51 19.51
6/21/2008 158 325 10 1 19 0 5 19 1 25 28 23 22 40 9 94.4 100.2 88.8 88.9 105.5 72.0 29.95 29.99 29.91 19.51 19.51 19.51
6/22/2008 158 348 145 2 19 0 6 19 0 25 27 23 26 41 9 96.6 101.2 91.6 88.0 102.7 73.3 29.96 30.01 29.92 19.51 19.51 19.51
6/23/2008 180 310 75 2 14 0 7 14 0 32 35 26 27 52 12 81.8 97.7 73.1 86.6 96.2 66.2 29.91 29.94 29.88 19.51 19.51 19.51
6/24/2008 180 289 65 2 14 0 6 14 0 39 55 30 42 70 11 77.0 86.6 62.4 77.6 94.0 61.5 29.93 29.96 29.88 19.51 19.51 19.51
6/25/2008 180 280 89 1 15 0 6 15 0 40 48 33 54 81 19 81.6 85.6 76.3 73.8 90.2 60.0 29.95 29.98 29.91 19.51 19.51 19.51
6/26/2008 180 290 115 1 12 0 5 12 0 42 48 33 57 85 23 80.4 86.0 76.3 71.8 87.5 57.9 29.93 29.97 29.85 19.51 19.51 19.51
6/27/2008 180 246 99 2 16 0 6 16 0 42 49 35 59 85 30 84.1 91.4 77.2 72.7 89.9 58.3 29.92 29.98 29.89 19.51 19.51 19.51
6/28/2008 202 242 141 2 13 0 5 13 0 34 42 25 48 79 13 88.0 94.9 81.4 76.3 95.9 59.5 29.98 30.02 29.95 19.51 19.51 19.51
6/29/2008 202 263 135 1 12 0 5 12 0 29 38 18 38 72 7 90.6 97.1 83.8 79.3 97.2 61.9 30.00 30.03 29.94 19.51 19.51 19.51
6/30/2008 202 301 53 1 13 0 5 13 0 27 34 24 28 51 8 87.9 93.3 80.1 81.1 98.3 63.8 29.97 30.02 29.91 19.51 19.51 19.51
7/1/2008 202 275 57 1 13 0 5 13 0 30 37 25 31 54 8 83.8 91.1 73.4 81.5 98.4 65.0 29.91 29.96 29.84 0.20 0.00 0.00
7/2/2008 202 302 30 1 13 0 5 14 0 38 42 35 36 61 13 78.4 83.6 75.5 81.8 99.4 63.3 29.85 29.89 29.79 0.00 0.00 0.00
7/3/2008 180 301 61 2 13 0 5 13 0 32 35 31 35 61 11 84.6 88.2 81.0 82.5 100.6 64.2 29.84 29.87 29.80 0.00 0.00 0.00
7/4/2008 180 290 87 2 16 0 5 16 0 28 31 26 32 59 7 89.3 93.1 86.4 83.8 102.5 66.1 29.87 29.91 29.82 0.00 0.00 0.00
7/5/2008 180 292 110 2 16 0 5 16 0 26 26 25 34 59 10 91.6 94.2 89.0 82.7 100.2 66.3 29.87 29.91 29.81 0.00 0.00 0.00
7/6/2008 180 302 145 1 15 0 5 15 0 28 31 24 35 61 11 87.3 93.1 83.8 80.9 96.6 64.0 29.79 29.85 29.73 0.00 0.00 0.00
7/7/2008 180 238 126 1 14 0 5 14 0 36 42 29 43 71 13 81.7 85.4 78.1 81.5 102.0 61.8 29.79 29.83 29.73 0.00 0.00 0.00
7/8/2008 180 239 106 1 14 0 5 16 0 38 44 35 50 78 22 83.2 85.6 77.6 80.1 99.3 64.6 29.79 29.82 29.74 0.00 0.00 0.00
7/9/2008 180 246 92 2 12 0 5 12 0 40 49 31 54 77 30 80.1 85.0 74.1 78.1 96.4 64.2 29.80 29.85 29.75 0.00 0.00 0.00
7/10/2008 180 292 133 2 14 0 6 14 0 42 47 39 55 78 30 82.9 86.2 80.1 78.4 96.4 65.3 29.85 29.94 29.80 0.00 0.00 0.00
7/11/2008 202 314 76 1 14 0 5 14 0 44 47 40 51 70 33 87.0 90.3 84.0 77.3 87.5 69.0 29.94 30.00 29.87 0.00 0.00 0.00
7/12/2008 202 327 6 1 18 0 5 18 0 40 40 38 49 73 25 89.4 92.2 86.6 78.0 93.8 65.1 30.02 30.05 29.96 0.00 0.00 0.00
7/13/2008 180 310 53 2 14 0 5 14 0 38 40 35 46 68 24 91.8 94.4 89.3 80.1 93.6 69.1 29.97 30.04 29.89 0.00 0.00 0.00
7/14/2008 180 307 106 1 15 0 5 15 0 37 43 31 39 59 23 83.7 93.1 77.2 78.5 93.1 65.9 29.95 29.99 29.90 0.00 0.00 0.00
7/15/2008 202 268 54 2 14 0 5 14 0 38 43 35 39 58 25 82.5 85.2 80.3 80.0 93.1 66.5 29.99 30.02 29.94 0.00 0.00 0.00
7/16/2008 180 312 116 2 16 0 5 16 0 38 44 32 42 61 24 81.4 85.4 73.2 81.3 95.8 67.6 30.00 30.05 29.95 0.00 0.00 0.00
7/17/2008 180 275 100 1 14 0 5 14 0 43 46 39 48 67 28 78.9 83.4 70.9 81.3 95.0 69.4 29.95 30.00 29.89 0.00 0.00 0.00
7/18/2008 180 235 104 2 12 0 5 12 0 46 57 39 52 79 28 82.1 89.0 73.9 79.5 94.2 65.5 29.87 29.92 29.80 0.00 0.00 0.00
7/19/2008 180 275 134 2 16 0 6 16 0 37 39 35 55 80 23 89.3 92.7 86.4 76.4 92.7 63.6 29.84 29.89 29.79 0.00 0.00 0.00
7/20/2008 180 256 91 2 19 0 7 19 0 35 37 34 59 80 40 90.8 93.3 88.4 74.2 88.2 63.0 29.92 29.99 29.87 0.00 0.00 0.00
7/21/2008 180 298 122 1 14 0 5 14 0 34 44 29 49 79 22 85.8 92.0 78.5 77.0 94.5 61.3 29.94 29.99 29.86 0.00 0.00 0.00
7/22/2008 202 326 118 1 13 0 5 14 0 34 37 29 46 74 18 84.4 89.3 78.1 77.6 94.2 61.5 29.91 29.97 29.85 0.00 0.00 0.00
7/23/2008 202 339 91 1 13 0 5 13 0 35 40 31 49 83 8 84.5 89.7 78.6 75.2 92.9 59.5 29.94 29.99 29.87 0.00 0.00 0.00
7/24/2008 202 301 125 1 12 0 4 12 0 34 40 28 42 72 8 83.2 89.7 75.5 77.9 98.1 59.9 29.90 29.94 29.84 0.00 0.00 0.00
7/25/2008 180 275 119 2 15 0 5 15 0 31 32 29 42 65 19 91.2 96.4 87.2 82.5 101.9 65.3 29.90 29.95 29.85 0.00 0.00 0.00
7/26/2008 180 295 129 2 18 0 6 18 0 29 29 27 47 69 22 96.8 99.3 94.6 80.6 95.7 69.3 29.95 29.99 29.91 0.00 0.00 0.00
7/27/2008 202 319 127 2 15 0 6 15 0 28 29 27 59 85 28 97.3 99.0 95.5 74.2 89.0 63.5 29.99 30.03 29.95 0.00 0.00 0.00
7/28/2008 202 348 3 2 14 0 6 14 0 31 36 26 60 82 28 87.7 97.8 79.9 73.4 88.7 63.2 30.00 30.04 29.95 0.00 0.00 0.00
7/29/2008 180 294 123 1 13 0 5 13 0 31 34 28 54 83 24 85.8 88.6 82.5 74.7 89.7 60.3 30.00 30.04 29.95 0.00 0.00 0.00
7/30/2008 202 243 141 1 13 0 5 13 0 32 34 30 50 78 19 85.9 87.6 84.6 76.9 92.8 62.1 29.95 29.99 29.88 0.00 0.00 0.00
7/31/2008 202 285 116 1 13 0 5 13 0 32 34 30 52 81 17 86.9 88.6 84.8 76.9 93.6 61.9 29.91 29.96 29.84 0.00 0.00 0.00
8/1/2008 202 285 39 2 13 0 5 13 0 31 32 29 44 74 9 90.7 94.6 87.2 79.6 98.3 61.4 29.87 29.91 29.82 0.00 0.00 0.00
8/2/2008 180 258 134 2 14 0 5 14 0 30 31 29 45 70 14 94.8 98.1 92.0 80.6 99.1 64.8 29.85 29.89 29.79 0.00 0.00 0.00
8/3/2008 180 259 66 1 14 0 5 14 0 29 31 28 50 76 20 96.7 99.3 94.4 79.5 96.3 65.1 29.88 29.94 29.83 0.00 0.00 0.00
8/4/2008 180 316 104 2 14 0 6 15 0 31 34 27 40 64 18 88.7 98.5 79.5 83.0 97.0 70.5 29.93 29.97 29.90 0.00 0.00 0.00
8/5/2008 180 309 129 1 15 0 5 15 0 33 35 30 43 67 21 84.9 86.6 81.6 81.6 96.4 68.2 29.95 29.99 29.90 0.00 0.00 0.00
8/6/2008 202 312 108 2 15 0 5 15 0 31 35 28 40 64 19 86.5 88.4 84.8 82.1 98.6 67.2 29.96 30.00 29.90 0.00 0.00 0.00
8/7/2008 202 318 87 1 14 0 5 14 0 31 35 28 40 60 19 87.6 90.5 85.4 82.1 99.5 69.1 29.92 29.96 29.85 0.00 0.00 0.00
8/8/2008 202 314 131 2 17 0 6 17 0 28 30 27 43 65 21 90.6 93.1 88.2 81.3 96.9 68.1 29.93 29.97 29.87 0.00 0.00 0.00
8/9/2008 180 358 6 1 15 0 5 15 0 28 30 27 46 73 26 91.1 93.1 89.0 78.2 92.0 65.9 29.97 30.00 29.93 0.00 0.00 0.00
8/10/2008 180 300 54 1 14 0 5 14 0 28 29 27 40 63 19 90.6 92.7 88.4 78.1 93.0 63.8 29.97 30.02 29.91 0.00 0.00 0.00
8/11/2008 180 252 122 1 12 0 5 12 0 30 33 27 44 68 18 85.8 91.4 82.7 76.8 93.5 60.6 29.92 29.97 29.84 0.00 0.00 0.00
8/12/2008 202 248 137 1 11 0 5 11 0 31 33 30 45 76 13 85.0 87.0 82.3 77.5 96.4 60.0 29.86 29.91 29.79 0.00 0.00 0.00
8/13/2008 180 262 120 1 10 0 4 11 0 32 34 30 42 74 11 85.8 88.0 83.1 79.9 100.0 61.0 29.85 29.89 29.81 0.00 0.00 0.00
8/14/2008 180 357 31 1 13 0 5 13 0 33 36 31 47 75 23 87.3 88.2 85.8 81.8 99.6 65.7 29.90 29.94 29.84 0.00 0.00 0.00
8/15/2008 202 280 133 1 14 0 5 14 0 32 33 30 44 70 23 90.9 94.9 88.0 80.6 94.2 68.1 29.92 29.95 29.88 0.00 0.00 0.00
8/16/2008 202 340 106 1 12 0 5 12 0 29 31 27 42 73 9 94.2 96.4 92.0 78.7 93.8 64.6 29.92 29.96 29.85 0.00 0.00 0.00
8/17/2008 202 303 39 1 14 0 5 14 0 28 29 27 45 77 15 94.9 97.1 92.9 77.4 92.4 62.6 29.91 29.95 29.85 0.00 0.00 0.00
8/18/2008 202 314 73 1 14 0 5 15 0 32 37 25 48 72 26 86.2 96.2 81.2 75.8 90.8 61.9 29.93 29.98 29.89 0.00 0.00 0.00
8/19/2008 202 299 93 2 14 0 5 14 0 33 36 30 48 76 18 81.7 83.8 77.7 74.8 89.3 60.4 29.92 29.97 29.86 0.00 0.00 0.00
8/20/2008 202 280 102 1 13 0 5 13 0 33 37 31 46 76 15 82.1 84.2 79.2 74.8 90.2 59.7 29.86 29.91 29.80 0.00 0.00 0.00
8/21/2008 225 322 123 2 14 0 6 14 0 33 37 32 48 71 21 83.0 84.4 80.8 76.3 92.4 61.8 29.84 29.88 29.80 0.00 0.00 0.00
8/22/2008 202 341 4 1 12 0 5 14 0 35 36 35 54 81 19 86.2 90.5 82.7 75.6 92.0 61.4 29.88 29.91 29.83 0.00 0.00 0.00
8/23/2008 202 248 115 1 12 0 4 12 0 34 35 32 49 80 13 90.2 93.8 87.2 78.2 97.2 62.0 29.91 29.95 29.85 0.00 0.00 0.00
8/24/2008 180 280 120 1 15 0 5 15 0 32 33 29 38 74 9 93.0 96.9 89.7 83.8 104.4 63.9 29.87 29.93 29.80 0.00 0.00 0.00
8/25/2008 180 280 102 1 15 0 5 15 0 34 39 28 36 57 15 85.2 96.0 76.0 84.2 100.8 70.0 29.82 29.86 29.76 0.00 0.00 0.00
8/26/2008 180 335 121 1 19 0 5 19 0 40 44 38 45 66 20 77.4 81.4 74.6 81.6 95.9 69.3 29.82 29.87 29.78 0.00 0.00 0.00
8/27/2008 180 306 103 1 12 0 5 12 0 40 43 36 50 76 24 79.5 82.3 75.8 79.0 94.4 63.7 29.86 29.91 29.80 0.00 0.00 0.00
8/28/2008 180 251 127 1 13 0 4 13 0 40 44 37 52 76 26 79.1 82.9 75.3 79.9 95.9 65.5 29.82 29.88 29.74 0.00 0.00 0.00
8/29/2008 180 359 3 2 14 0 5 14 0 40 41 38 52 79 22 85.8 91.6 80.6 81.8 101.1 66.6 29.79 29.85 29.72 0.00 0.00 0.00
8/30/2008 180 341 26 1 16 0 6 16 0 37 38 35 49 72 28 92.0 95.1 89.5 82.0 96.0 71.0 29.76 29.81 29.70 0.00 0.00 0.00
8/31/2008 180 354 0 2 16 0 6 16 0 34 35 34 55 74 38 93.7 96.0 91.6 77.6 89.3 67.5 29.78 29.82 29.73 0.00 0.00 0.00
9/1/2008 180 355 134 1 13 0 5 13 0 34 35 33 56 82 18 93.5 95.5 91.1 76.5 92.1 64.1 29.83 29.89 29.78 0.00 0.00 0.00
9/2/2008 202 322 118 2 15 0 5 16 0 37 41 30 48 75 16 82.6 94.2 75.8 80.2 98.4 63.6 29.89 29.92 29.84 0.00 0.00 0.00
9/3/2008 180 320 139 1 15 0 5 15 0 39 44 36 41 75 12 79.1 81.6 74.8 81.7 99.5 65.7 29.89 29.93 29.83 0.00 0.00 0.00
9/4/2008 180 308 108 1 16 0 5 16 0 38 42 33 32 49 16 79.4 82.3 75.8 82.9 99.3 68.7 29.86 29.90 29.79 0.00 0.00 0.00
9/5/2008 180 275 144 1 16 0 5 16 0 35 38 33 33 50 15 86.0 90.9 82.3 82.1 100.5 68.1 29.83 29.86 29.78 0.00 0.00 0.00
9/6/2008 180 280 142 1 14 0 5 15 0 33 33 32 33 53 15 90.8 94.4 88.0 83.0 101.1 68.1 29.82 29.85 29.78 0.00 0.00 0.00
9/7/2008 225 346 12 1 13 0 5 13 0 32 32 31 35 55 13 92.9 96.0 90.5 82.3 98.2 69.3 29.80 29.85 29.75 0.00 0.00 0.00
9/8/2008 180 327 130 2 15 0 5 15 0 33 40 29 50 72 19 84.0 94.6 74.3 76.8 94.4 63.3 29.81 29.83 29.75 0.00 0.00 0.00
9/9/2008 180 308 60 1 19 0 6 20 0 35 39 31 47 80 12 79.0 81.8 76.0 76.0 91.8 61.1 29.81 29.86 29.77 0.00 0.00 0.00
9/10/2008 180 316 33 1 13 0 5 13 0 37 43 32 57 82 21 77.4 82.5 71.6 70.9 85.6 61.5 29.83 29.87 29.78 0.00 0.00 0.00
9/11/2008 180 304 108 2 11 0 7 11 0 38 41 33 55 81 35 78.6 82.7 71.7 73.7 84.0 57.4 29.85 29.91 29.79 0.00 0.00 0.00
9/12/2008 180 280 138 1 14 0 4 14 0 41 44 39 70 85 48 74.5 79.5 67.5 66.6 77.9 58.3 29.90 29.95 29.87 0.00 0.00 0.00
9/13/2008 180 280 33 1 13 0 5 13 0 43 48 41 63 84 37 71.0 73.7 67.7 70.5 84.8 60.0 29.91 29.97 29.88 0.00 0.00 0.00
9/14/2008 180 249 155 1 12 0 4 12 0 43 48 41 57 85 24 75.1 82.9 68.8 73.1 92.2 57.7 29.95 30.00 29.91 0.00 0.00 0.00
9/15/2008 180 315 131 2 14 0 5 15 0 36 41 29 31 60 3 79.0 82.9 73.7 82.0 103.4 63.6 29.92 29.97 29.85 0.00 0.00 0.00
9/16/2008 180 311 123 2 20 0 5 20 0 35 40 31 31 69 10 80.1 81.9 75.5 81.9 100.2 70.5 29.95 30.02 29.91 0.00 0.00 0.00
9/17/2008 180 308 130 1 15 0 5 15 0 39 44 36 53 79 27 79.0 82.1 74.4 77.7 92.9 64.2 29.98 30.03 29.93 0.00 0.00 0.00
9/18/2008 202 310 90 1 17 0 5 17 0 40 43 37 51 74 25 78.3 82.1 69.2 78.2 92.6 66.6 29.97 30.02 29.91 0.00 0.00 0.00
9/19/2008 180 320 134 2 20 0 5 20 0 41 46 39 45 68 20 72.5 76.7 62.3 75.2 89.2 63.3 29.97 30.01 29.93 0.00 0.00 0.00
9/20/2008 180 358 0 2 14 0 6 16 0 45 49 42 51 74 25 63.8 67.2 60.3 70.2 83.8 59.2 29.97 30.02 29.92 0.00 0.00 0.00
9/21/2008 202 299 75 2 12 0 5 12 0 44 46 42 60 84 25 68.9 76.9 62.6 66.3 81.2 53.7 29.94 29.98 29.89 0.00 0.00 0.00
9/22/2008 202 280 96 1 10 0 4 10 0 43 47 40 58 84 27 73.1 76.5 69.7 68.0 83.8 54.2 29.94 29.99 29.90 0.00 0.00 0.00
9/23/2008 202 285 93 1 15 0 4 15 0 40 44 35 42 72 11 75.2 79.0 73.4 75.4 95.1 58.7 29.97 30.02 29.93 0.00 0.00 0.00
9/24/2008 180 339 128 1 13 0 4 13 0 36 40 34 32 55 9 78.0 81.6 76.2 79.5 97.4 64.1 29.96 30.01 29.90 0.00 0.00 0.00
9/25/2008 180 295 116 1 15 0 5 15 0 35 40 32 27 46 12 79.3 82.5 75.3 82.2 99.6 68.5 29.92 29.96 29.86 0.00 0.00 0.00
9/26/2008 180 285 58 1 13 0 4 13 0 35 43 31 32 57 13 78.9 81.9 76.3 79.3 96.1 66.2 29.95 29.99 29.90 0.00 0.00 0.00
9/27/2008 248 295 130 1 13 0 4 13 0 39 44 33 41 63 15 74.4 80.5 70.5 78.1 94.4 65.3 29.96 30.00 29.90 0.00 0.00 0.00
9/28/2008 248 289 143 2 15 0 5 15 0 40 43 38 37 60 14 72.7 75.6 70.5 78.5 95.5 64.7 29.95 29.99 29.89 0.00 0.00 0.00
9/29/2008 180 359 0 3 23 0 7 23 0 38 41 36 31 49 15 75.7 81.6 71.0 80.8 96.9 67.5 29.94 29.98 29.88 0.00 0.00 0.00
9/30/2008 315 359 0 1 12 0 5 13 0 35 38 32 25 42 10 79.4 81.8 75.6 84.8 99.8 70.1 29.98 30.03 29.92 0.00 0.00 0.00
10/1/2008 202 351 6 2 15 0 5 15 0 35 36 33 27 40 12 81.2 84.6 78.5 84.9 99.5 72.2 29.97 30.01 29.91 0.00 0.00 0.00
10/2/2008 180 247 43 1 13 0 5 13 0 36 42 32 37 53 18 79.8 84.4 75.8 77.7 90.6 68.4 29.92 29.97 29.86 0.00 0.00 0.00
10/3/2008 180 314 92 2 17 0 6 17 0 36 39 34 52 80 29 78.6 81.0 74.3 68.7 80.7 59.2 29.88 29.92 29.84 0.00 0.00 0.00
10/4/2008 180 291 137 2 14 0 7 15 0 36 36 36 75 85 65 82.1 83.3 79.9 60.9 63.2 58.6 29.90 29.93 29.86 0.00 0.08 0.00
10/5/2008 180 310 85 1 14 0 4 14 0 36 37 36 70 88 42 83.7 85.8 81.9 63.7 74.9 56.8 29.93 29.97 29.89 0.10 0.10 0.08
10/6/2008 225 359 0 2 20 0 6 20 0 33 36 28 45 85 11 81.1 85.0 77.0 71.4 90.6 54.4 29.98 30.04 29.94 0.10 0.10 0.10
10/7/2008 338 359 0 4 20 0 10 20 0 28 30 25 18 38 7 81.9 84.8 79.2 82.0 95.4 66.0 30.02 30.09 29.95 0.10 0.10 0.10
10/8/2008 315 359 0 1 14 0 5 16 0 28 34 26 18 31 8 78.8 84.8 64.8 80.7 96.5 67.7 29.91 29.98 29.84 0.10 0.10 0.10
10/9/2008 180 285 16 1 14 0 5 14 0 37 50 33 35 81 13 71.3 81.9 59.4 72.8 88.5 61.5 29.82 29.87 29.73 0.10 0.10 0.10
10/10/2008 180 359 0 3 28 0 8 28 0 33 37 23 57 86 20 80.1 82.5 74.8 62.5 71.7 54.7 29.77 29.83 29.70 0.10 0.10 0.10
10/11/2008 180 359 0 6 33 0 14 33 0 24 27 20 25 56 9 74.8 77.2 72.0 57.9 66.4 47.7 29.84 29.94 29.73 0.10 0.10 0.10
10/12/2008 0 359 0 16 46 0 28 46 0 20 22 17 15 25 8 69.4 72.0 67.4 59.1 67.5 50.9 30.04 30.12 29.93 0.10 0.10 0.10
10/13/2008 0 359 0 14 49 0 31 49 0 19 21 18 13 19 9 71.9 75.8 68.0 62.9 70.0 55.5 30.20 30.29 30.10 0.10 0.10 0.10
10/14/2008 0 359 0 17 58 0 29 58 1 19 25 18 11 15 8 79.0 83.6 71.5 74.1 83.5 64.4 30.07 30.18 29.98 0.12 0.12 0.10
10/15/2008 0 359 0 9 31 0 16 32 0 18 21 17 12 23 7 84.8 87.2 82.7 78.6 89.8 65.2 30.00 30.06 29.95 0.12 0.12 0.12
10/16/2008 292 359 0 2 17 0 6 17 0 21 23 20 16 28 4 81.7 86.2 78.1 74.3 91.0 60.1 30.05 30.10 30.00 0.12 0.12 0.12
10/17/2008 202 310 2 1 14 0 5 14 0 23 25 22 17 30 6 79.6 82.3 74.8 75.6 93.3 59.1 30.08 30.13 30.01 0.12 0.12 0.12
10/18/2008 202 285 149 1 11 0 4 11 0 24 24 24 27 42 10 82.3 85.0 80.1 69.7 86.1 56.7 30.05 30.11 30.01 0.12 0.12 0.12
10/19/2008 225 280 146 1 10 0 4 10 0 25 26 24 39 74 19 83.4 85.2 81.0 67.2 82.4 55.4 30.01 30.05 29.96 0.12 0.12 0.12
10/20/2008 225 310 149 1 11 0 4 11 0 30 37 26 60 88 29 81.0 84.6 76.0 63.8 78.5 51.2 30.05 30.09 30.00 0.12 0.12 0.12
10/21/2008 0 359 0 6 41 0 13 41 0 26 35 21 29 74 7 80.0 85.2 72.0 75.3 90.2 57.0 30.02 30.07 29.97 0.12 0.12 0.12
10/22/2008 0 359 0 18 42 0 33 42 0 16 21 12 4 10 1 82.9 84.6 79.3 81.0 86.4 76.7 30.06 30.11 30.02 0.12 0.12 0.12
10/23/2008 0 359 0 9 38 0 18 38 0 14 17 10 3 16 1 81.3 85.4 75.8 78.3 89.1 62.6 30.03 30.08 29.97 0.12 0.12 0.12
10/24/2008 180 313 137 1 10 0 4 10 0 20 25 17 12 22 3 72.8 81.4 63.2 71.6 89.3 57.8 30.03 30.07 29.99 0.12 0.12 0.12
10/25/2008 270 308 165 1 9 0 4 9 0 23 23 22 16 29 3 73.2 78.6 67.2 72.1 91.4 57.8 30.06 30.11 30.01 0.12 0.12 0.12
10/26/2008 225 303 143 1 10 0 4 10 0 23 23 22 18 33 5 78.4 81.6 75.8 72.2 90.6 57.7 30.08 30.12 30.03 0.12 0.12 0.12
10/27/2008 248 253 138 1 10 0 3 10 0 23 27 19 14 29 2 75.6 80.8 65.1 75.0 94.7 59.8 30.13 30.18 30.08 0.12 0.12 0.12
10/28/2008 248 259 146 1 8 0 3 9 0 26 32 23 17 29 6 73.1 79.9 65.1 77.6 95.4 62.8 30.12 30.17 30.06 0.12 0.12 0.12
10/29/2008 248 259 126 1 9 0 3 9 0 26 30 24 21 35 6 76.7 81.9 70.9 75.5 91.9 62.1 30.04 30.10 29.97 0.12 0.12 0.12
10/30/2008 158 318 93 2 18 0 6 18 0 26 30 24 25 39 8 81.2 83.8 77.6 72.4 85.5 60.5 30.08 30.20 30.01 0.12 0.12 0.12
10/31/2008 158 338 11 0 9 0 2 9 0 26 29 25 30 49 14 83.7 84.8 82.3 72.5 82.9 63.9 30.22 30.27 30.18 0.12 0.12 0.12
11/1/2008 180 289 4 1 12 0 5 12 0 26 29 24 41 80 14 83.2 84.4 81.8 70.0 82.5 61.2 30.14 30.22 30.08 0.14 0.29 0.12
11/2/2008 180 303 84 2 12 0 6 15 0 30 31 29 68 82 41 82.9 83.8 82.1 62.0 69.7 56.8 30.07 30.11 30.02 0.29 0.29 0.29
11/3/2008 180 298 58 1 11 0 5 11 0 32 33 30 71 84 48 81.1 82.5 78.1 58.2 64.1 54.6 30.01 30.05 29.95 0.29 0.29 0.29
11/4/2008 135 358 16 1 13 0 5 13 0 33 38 31 70 88 40 80.0 82.1 75.8 56.9 63.9 52.2 29.98 30.02 29.94 0.39 0.42 0.29
11/5/2008 0 359 0 14 37 0 25 37 0 24 31 18 23 46 10 75.0 79.2 72.2 60.5 68.1 51.4 30.07 30.16 30.01 0.42 0.42 0.42
11/6/2008 315 359 0 7 40 0 20 40 0 21 24 17 14 20 7 77.8 81.0 74.4 69.5 76.6 61.7 30.16 30.22 30.10 0.42 0.42 0.42
11/7/2008 0 359 0 13 47 0 26 47 0 22 23 21 18 22 14 80.5 82.1 78.1 72.9 79.3 68.6 30.11 30.19 30.02 0.42 0.42 0.42
11/8/2008 225 359 0 2 21 0 8 21 0 23 24 22 25 46 12 82.8 84.4 81.4 71.0 81.6 57.8 29.95 30.06 29.81 0.42 0.42 0.42
11/9/2008 180 304 50 2 17 0 7 17 0 26 27 24 59 83 35 81.9 83.4 80.1 56.2 63.0 49.3 29.79 29.92 29.71 0.43 0.44 0.42
11/10/2008 315 304 111 1 11 0 4 11 0 28 30 26 63 81 38 78.0 80.1 75.5 54.6 64.8 46.2 30.00 30.08 29.91 0.44 0.44 0.44
11/11/2008 225 359 0 1 24 0 4 24 0 30 30 30 60 88 31 76.8 78.3 74.8 57.3 70.2 45.1 30.12 30.16 30.07 0.44 0.44 0.44
11/12/2008 0 359 0 11 37 0 21 37 0 28 30 27 27 41 20 79.3 83.4 75.6 72.2 81.6 60.5 30.09 30.15 30.02 0.44 0.44 0.44
11/13/2008 338 359 0 5 35 0 13 35 0 28 30 26 26 46 12 81.0 82.9 77.7 74.9 86.9 59.9 29.98 30.06 29.92 0.44 0.44 0.44
11/14/2008 0 359 0 25 57 0 43 57 1 23 28 16 16 26 5 83.8 86.0 81.4 78.4 82.9 73.7 30.02 30.13 29.94 0.44 0.45 0.44
11/15/2008 0 359 0 25 54 0 41 54 3 15 19 14 5 10 3 82.0 84.0 78.8 75.6 81.5 69.2 30.09 30.15 30.02 0.45 0.45 0.45
11/16/2008 0 359 0 15 40 0 28 40 0 16 17 15 7 11 6 83.8 86.4 81.9 78.4 85.2 72.6 30.09 30.14 30.04 0.45 0.45 0.45
11/17/2008 202 359 0 2 18 0 6 19 0 18 21 16 14 26 7 81.6 85.0 77.6 72.7 87.9 59.1 30.14 30.19 30.10 0.45 0.45 0.45
11/18/2008 225 233 168 1 9 0 3 9 0 21 24 19 18 31 8 81.5